sensor_id;sensor_type;location;lat;lon;timestamp;temperature;humidity
10812;DHT22;5458;51.496;7.334;2022-10-16T00:02:15;15.30;99.90
10812;DHT22;5458;51.496;7.334;2022-10-16T00:04:41;15.20;99.90
10812;DHT22;5458;51.496;7.334;2022-10-16T00:07:07;15.20;99.90
10812;DHT22;5458;51.496;7.334;2022-10-16T00:09:32;15.20;99.90
10812;DHT22;5458;51.496;7.334;2022-10-16T00:11:58;15.20;99.90
10812;DHT22;5458;51.496;7.334;2022-10-16T00:14:23;15.30;99.90
10812;DHT22;5458;51.496;7.334;2022-10-16T00:16:49;15.20;99.90
10812;DHT22;5458;51.496;7.334;2022-10-16T00:19:14;15.20;99.90
10812;DHT22;5458;51.496;7.334;2022-10-16T00:21:41;15.20;99.90
10812;DHT22;5458;51.496;7.334;2022-10-16T00:24:08;15.20;99.90
10812;DHT22;5458;51.496;7.334;2022-10-16T00:26:35;15.10;99.90
10812;DHT22;5458;51.496;7.334;2022-10-16T00:29:01;15.10;99.90
10812;DHT22;5458;51.496;7.334;2022-10-16T00:31:28;15.10;99.90
10812;DHT22;5458;51.496;7.334;2022-10-16T00:33:55;15.10;99.90
10812;DHT22;5458;51.496;7.334;2022-10-16T00:36:22;15.10;99.90
10812;DHT22;5458;51.496;7.334;2022-10-16T00:38:52;15.10;99.90
10812;DHT22;5458;51.496;7.334;2022-10-16T00:41:19;15.10;99.90
10812;DHT22;5458;51.496;7.334;2022-10-16T00:49:05;15.10;99.90
10812;DHT22;5458;51.496;7.334;2022-10-16T00:51:39;15.20;99.90
10812;DHT22;5458;51.496;7.334;2022-10-16T00:54:11;15.20;99.90
10812;DHT22;5458;51.496;7.334;2022-10-16T00:56:38;15.20;99.90
10812;DHT22;5458;51.496;7.334;2022-10-16T00:59:07;15.10;99.90
10812;DHT22;5458;51.496;7.334;2022-10-16T01:01:36;15.10;99.90
10812;DHT22;5458;51.496;7.334;2022-10-16T01:04:01;15.10;99.90
10812;DHT22;5458;51.496;7.334;2022-10-16T01:12:27;15.10;99.90
10812;DHT22;5458;51.496;7.334;2022-10-16T01:15:02;15.10;99.90
10812;DHT22;5458;51.496;7.334;2022-10-16T01:17:49;15.00;99.90
10812;DHT22;5458;51.496;7.334;2022-10-16T01:20:26;15.10;99.90
10812;DHT22;5458;51.496;7.334;2022-10-16T01:28:07;15.00;99.90
10812;DHT22;5458;51.496;7.334;2022-10-16T01:30:35;15.10;99.90
10812;DHT22;5458;51.496;7.334;2022-10-16T01:33:17;15.00;99.90
10812;DHT22;5458;51.496;7.334;2022-10-16T01:35:58;15.00;99.90
10812;DHT22;5458;51.496;7.334;2022-10-16T01:38:34;15.00;99.90
10812;DHT22;5458;51.496;7.334;2022-10-16T01:41:11;14.90;99.90
10812;DHT22;5458;51.496;7.334;2022-10-16T01:43:57;14.90;99.90
10812;DHT22;5458;51.496;7.334;2022-10-16T01:46:25;14.90;99.90
10812;DHT22;5458;51.496;7.334;2022-10-16T01:48:52;14.90;99.90
10812;DHT22;5458;51.496;7.334;2022-10-16T01:51:20;14.90;99.90
10812;DHT22;5458;51.496;7.334;2022-10-16T01:53:49;14.90;99.90
10812;DHT22;5458;51.496;7.334;2022-10-16T01:56:18;14.80;99.90
10812;DHT22;5458;51.496;7.334;2022-10-16T01:58:52;14.90;99.90
10812;DHT22;5458;51.496;7.334;2022-10-16T02:01:21;14.80;99.90
10812;DHT22;5458;51.496;7.334;2022-10-16T02:03:51;14.80;99.90
10812;DHT22;5458;51.496;7.334;2022-10-16T02:06:18;14.80;99.90
10812;DHT22;5458;51.496;7.334;2022-10-16T02:08:43;14.80;99.90
10812;DHT22;5458;51.496;7.334;2022-10-16T02:11:10;14.80;99.90
10812;DHT22;5458;51.496;7.334;2022-10-16T02:13:44;14.80;99.90
10812;DHT22;5458;51.496;7.334;2022-10-16T02:16:11;14.80;99.90
10812;DHT22;5458;51.496;7.334;2022-10-16T02:18:37;14.80;99.90
10812;DHT22;5458;51.496;7.334;2022-10-16T02:26:28;14.80;99.90
10812;DHT22;5458;51.496;7.334;2022-10-16T02:29:00;14.80;99.90
10812;DHT22;5458;51.496;7.334;2022-10-16T02:31:28;14.80;99.90
10812;DHT22;5458;51.496;7.334;2022-10-16T02:33:58;14.80;99.90
10812;DHT22;5458;51.496;7.334;2022-10-16T02:36:26;14.80;99.90
10812;DHT22;5458;51.496;7.334;2022-10-16T02:38:52;14.80;99.90
10812;DHT22;5458;51.496;7.334;2022-10-16T02:41:20;14.70;99.90
10812;DHT22;5458;51.496;7.334;2022-10-16T02:43:46;14.70;99.90
10812;DHT22;5458;51.496;7.334;2022-10-16T02:46:12;14.80;99.90
10812;DHT22;5458;51.496;7.334;2022-10-16T02:48:37;14.80;99.90
10812;DHT22;5458;51.496;7.334;2022-10-16T02:51:04;14.80;99.90
10812;DHT22;5458;51.496;7.334;2022-10-16T02:53:31;14.80;99.90
10812;DHT22;5458;51.496;7.334;2022-10-16T02:55:57;14.90;99.90
10812;DHT22;5458;51.496;7.334;2022-10-16T02:58:22;14.90;99.90
10812;DHT22;5458;51.496;7.334;2022-10-16T03:00:48;14.90;99.90
10812;DHT22;5458;51.496;7.334;2022-10-16T03:03:13;14.80;99.90
10812;DHT22;5458;51.496;7.334;2022-10-16T03:05:39;14.90;99.90
10812;DHT22;5458;51.496;7.334;2022-10-16T03:08:05;14.90;99.90
10812;DHT22;5458;51.496;7.334;2022-10-16T03:10:31;14.90;99.90
10812;DHT22;5458;51.496;7.334;2022-10-16T03:12:56;14.90;99.90
10812;DHT22;5458;51.496;7.334;2022-10-16T03:15:22;14.90;99.90
10812;DHT22;5458;51.496;7.334;2022-10-16T03:17:47;14.80;99.90
10812;DHT22;5458;51.496;7.334;2022-10-16T03:20:13;14.90;99.90
10812;DHT22;5458;51.496;7.334;2022-10-16T03:22:39;14.90;99.90
10812;DHT22;5458;51.496;7.334;2022-10-16T03:25:05;14.90;99.90
10812;DHT22;5458;51.496;7.334;2022-10-16T03:27:30;14.90;99.90
10812;DHT22;5458;51.496;7.334;2022-10-16T03:29:56;14.90;99.90
10812;DHT22;5458;51.496;7.334;2022-10-16T03:32:22;14.90;99.90
10812;DHT22;5458;51.496;7.334;2022-10-16T03:34:48;14.80;99.90
10812;DHT22;5458;51.496;7.334;2022-10-16T03:37:13;14.80;99.90
10812;DHT22;5458;51.496;7.334;2022-10-16T03:39:39;14.80;99.90
10812;DHT22;5458;51.496;7.334;2022-10-16T03:42:04;14.80;99.90
10812;DHT22;5458;51.496;7.334;2022-10-16T03:44:30;14.80;99.90
10812;DHT22;5458;51.496;7.334;2022-10-16T03:46:55;14.80;99.90
10812;DHT22;5458;51.496;7.334;2022-10-16T03:49:21;14.80;99.90
10812;DHT22;5458;51.496;7.334;2022-10-16T03:51:46;14.80;99.90
10812;DHT22;5458;51.496;7.334;2022-10-16T03:54:12;14.80;99.90
10812;DHT22;5458;51.496;7.334;2022-10-16T03:56:38;14.80;99.90
10812;DHT22;5458;51.496;7.334;2022-10-16T03:59:03;14.80;99.90
10812;DHT22;5458;51.496;7.334;2022-10-16T04:01:29;14.80;99.90
10812;DHT22;5458;51.496;7.334;2022-10-16T04:03:55;14.70;99.90
10812;DHT22;5458;51.496;7.334;2022-10-16T04:06:20;14.70;99.90
10812;DHT22;5458;51.496;7.334;2022-10-16T04:08:46;14.70;99.90
10812;DHT22;5458;51.496;7.334;2022-10-16T04:11:11;14.70;99.90
10812;DHT22;5458;51.496;7.334;2022-10-16T04:13:37;14.60;99.90
10812;DHT22;5458;51.496;7.334;2022-10-16T04:16:03;14.60;99.90
10812;DHT22;5458;51.496;7.334;2022-10-16T04:18:28;14.60;99.90
10812;DHT22;5458;51.496;7.334;2022-10-16T04:20:54;14.60;99.90
10812;DHT22;5458;51.496;7.334;2022-10-16T04:23:20;14.50;99.90
10812;DHT22;5458;51.496;7.334;2022-10-16T04:25:46;14.50;99.90
10812;DHT22;5458;51.496;7.334;2022-10-16T04:28:11;14.60;99.90
10812;DHT22;5458;51.496;7.334;2022-10-16T04:30:38;14.50;99.90
10812;DHT22;5458;51.496;7.334;2022-10-16T04:33:04;14.50;99.90
10812;DHT22;5458;51.496;7.334;2022-10-16T04:35:29;14.50;99.90
10812;DHT22;5458;51.496;7.334;2022-10-16T04:37:57;14.50;99.90
10812;DHT22;5458;51.496;7.334;2022-10-16T04:40:23;14.50;99.90
10812;DHT22;5458;51.496;7.334;2022-10-16T04:42:49;14.40;99.90
10812;DHT22;5458;51.496;7.334;2022-10-16T04:45:15;14.40;99.90
10812;DHT22;5458;51.496;7.334;2022-10-16T04:47:40;14.40;99.90
10812;DHT22;5458;51.496;7.334;2022-10-16T04:50:07;14.40;99.90
10812;DHT22;5458;51.496;7.334;2022-10-16T04:52:33;14.40;99.90
10812;DHT22;5458;51.496;7.334;2022-10-16T04:54:58;14.40;99.90
10812;DHT22;5458;51.496;7.334;2022-10-16T04:57:27;14.40;99.90
10812;DHT22;5458;51.496;7.334;2022-10-16T04:59:53;14.40;99.90
10812;DHT22;5458;51.496;7.334;2022-10-16T05:02:19;14.40;99.90
10812;DHT22;5458;51.496;7.334;2022-10-16T05:04:44;14.40;99.90
10812;DHT22;5458;51.496;7.334;2022-10-16T05:07:10;14.40;99.90
10812;DHT22;5458;51.496;7.334;2022-10-16T05:09:36;14.40;99.90
10812;DHT22;5458;51.496;7.334;2022-10-16T05:12:01;14.40;99.90
10812;DHT22;5458;51.496;7.334;2022-10-16T05:14:29;14.40;99.90
10812;DHT22;5458;51.496;7.334;2022-10-16T05:16:54;14.40;99.90
10812;DHT22;5458;51.496;7.334;2022-10-16T05:19:20;14.40;99.90
10812;DHT22;5458;51.496;7.334;2022-10-16T05:21:46;14.40;99.90
10812;DHT22;5458;51.496;7.334;2022-10-16T05:24:11;14.40;99.90
10812;DHT22;5458;51.496;7.334;2022-10-16T05:26:37;14.40;99.90
10812;DHT22;5458;51.496;7.334;2022-10-16T05:29:03;14.50;99.90
10812;DHT22;5458;51.496;7.334;2022-10-16T05:31:28;14.50;99.90
10812;DHT22;5458;51.496;7.334;2022-10-16T05:34:01;14.40;99.90
10812;DHT22;5458;51.496;7.334;2022-10-16T05:36:26;14.50;99.90
10812;DHT22;5458;51.496;7.334;2022-10-16T05:38:52;14.40;99.90
10812;DHT22;5458;51.496;7.334;2022-10-16T05:41:18;14.50;99.90
10812;DHT22;5458;51.496;7.334;2022-10-16T05:43:50;14.40;99.90
10812;DHT22;5458;51.496;7.334;2022-10-16T05:46:16;14.40;99.90
10812;DHT22;5458;51.496;7.334;2022-10-16T05:48:42;14.40;99.90
10812;DHT22;5458;51.496;7.334;2022-10-16T05:51:10;14.40;99.90
10812;DHT22;5458;51.496;7.334;2022-10-16T05:53:37;14.40;99.90
10812;DHT22;5458;51.496;7.334;2022-10-16T05:56:05;14.40;99.90
10812;DHT22;5458;51.496;7.334;2022-10-16T05:58:33;14.40;99.90
10812;DHT22;5458;51.496;7.334;2022-10-16T06:01:07;14.40;99.90
10812;DHT22;5458;51.496;7.334;2022-10-16T06:03:33;14.40;99.90
10812;DHT22;5458;51.496;7.334;2022-10-16T06:05:59;14.40;99.90
10812;DHT22;5458;51.496;7.334;2022-10-16T06:08:32;14.40;99.90
10812;DHT22;5458;51.496;7.334;2022-10-16T06:11:05;14.40;99.90
10812;DHT22;5458;51.496;7.334;2022-10-16T06:13:31;14.40;99.90
10812;DHT22;5458;51.496;7.334;2022-10-16T06:15:58;14.40;99.90
10812;DHT22;5458;51.496;7.334;2022-10-16T06:18:25;14.50;99.90
10812;DHT22;5458;51.496;7.334;2022-10-16T06:20:51;14.40;99.90
10812;DHT22;5458;51.496;7.334;2022-10-16T06:23:16;14.40;99.90
10812;DHT22;5458;51.496;7.334;2022-10-16T06:25:42;14.40;99.90
10812;DHT22;5458;51.496;7.334;2022-10-16T06:28:07;14.50;99.90
10812;DHT22;5458;51.496;7.334;2022-10-16T06:30:33;14.50;99.90
10812;DHT22;5458;51.496;7.334;2022-10-16T06:32:58;14.50;99.90
10812;DHT22;5458;51.496;7.334;2022-10-16T06:35:24;14.60;99.90
10812;DHT22;5458;51.496;7.334;2022-10-16T06:37:49;14.60;99.90
10812;DHT22;5458;51.496;7.334;2022-10-16T06:40:15;14.60;99.90
10812;DHT22;5458;51.496;7.334;2022-10-16T06:42:41;14.60;99.90
10812;DHT22;5458;51.496;7.334;2022-10-16T06:45:07;14.70;99.90
10812;DHT22;5458;51.496;7.334;2022-10-16T06:47:32;14.70;99.90
10812;DHT22;5458;51.496;7.334;2022-10-16T06:49:58;14.80;99.90
10812;DHT22;5458;51.496;7.334;2022-10-16T06:52:24;14.90;99.90
10812;DHT22;5458;51.496;7.334;2022-10-16T06:54:49;15.00;99.90
10812;DHT22;5458;51.496;7.334;2022-10-16T06:57:15;15.10;99.90
10812;DHT22;5458;51.496;7.334;2022-10-16T06:59:41;15.10;99.90
10812;DHT22;5458;51.496;7.334;2022-10-16T07:02:08;15.20;99.90
10812;DHT22;5458;51.496;7.334;2022-10-16T07:04:33;15.30;99.90
10812;DHT22;5458;51.496;7.334;2022-10-16T07:07:00;15.30;99.90
10812;DHT22;5458;51.496;7.334;2022-10-16T07:09:26;15.30;99.90
10812;DHT22;5458;51.496;7.334;2022-10-16T07:11:52;15.40;99.90
10812;DHT22;5458;51.496;7.334;2022-10-16T07:14:19;15.50;99.90
10812;DHT22;5458;51.496;7.334;2022-10-16T07:16:46;15.60;99.90
10812;DHT22;5458;51.496;7.334;2022-10-16T07:19:12;15.80;99.90
10812;DHT22;5458;51.496;7.334;2022-10-16T07:21:40;16.10;99.90
10812;DHT22;5458;51.496;7.334;2022-10-16T07:24:10;17.40;99.90
10812;DHT22;5458;51.496;7.334;2022-10-16T07:26:37;19.40;99.90
10812;DHT22;5458;51.496;7.334;2022-10-16T07:29:05;20.20;99.90
10812;DHT22;5458;51.496;7.334;2022-10-16T07:31:30;19.90;99.90
10812;DHT22;5458;51.496;7.334;2022-10-16T07:33:58;19.30;99.90
10812;DHT22;5458;51.496;7.334;2022-10-16T07:36:24;18.70;99.90
10812;DHT22;5458;51.496;7.334;2022-10-16T07:38:50;18.10;99.90
10812;DHT22;5458;51.496;7.334;2022-10-16T07:41:17;17.50;99.90
10812;DHT22;5458;51.496;7.334;2022-10-16T07:43:47;17.20;99.90
10812;DHT22;5458;51.496;7.334;2022-10-16T07:46:13;16.90;99.90
10812;DHT22;5458;51.496;7.334;2022-10-16T07:48:39;16.90;99.90
10812;DHT22;5458;51.496;7.334;2022-10-16T07:51:06;18.30;99.90
10812;DHT22;5458;51.496;7.334;2022-10-16T07:53:32;21.50;99.90
10812;DHT22;5458;51.496;7.334;2022-10-16T07:56:03;25.00;99.90
10812;DHT22;5458;51.496;7.334;2022-10-16T07:58:29;28.30;95.30
10812;DHT22;5458;51.496;7.334;2022-10-16T08:00:56;29.90;87.30
10812;DHT22;5458;51.496;7.334;2022-10-16T08:03:23;30.10;84.20
10812;DHT22;5458;51.496;7.334;2022-10-16T08:05:48;31.10;78.30
10812;DHT22;5458;51.496;7.334;2022-10-16T08:08:15;32.60;73.80
10812;DHT22;5458;51.496;7.334;2022-10-16T08:10:41;33.60;67.40
10812;DHT22;5458;51.496;7.334;2022-10-16T08:13:07;34.30;62.80
10812;DHT22;5458;51.496;7.334;2022-10-16T08:15:33;34.40;59.70
10812;DHT22;5458;51.496;7.334;2022-10-16T08:18:00;34.80;57.20
10812;DHT22;5458;51.496;7.334;2022-10-16T08:20:27;34.80;56.10
10812;DHT22;5458;51.496;7.334;2022-10-16T08:22:53;34.80;55.60
10812;DHT22;5458;51.496;7.334;2022-10-16T08:25:20;34.30;55.90
10812;DHT22;5458;51.496;7.334;2022-10-16T08:27:46;34.20;56.30
10812;DHT22;5458;51.496;7.334;2022-10-16T08:30:12;34.20;55.10
10812;DHT22;5458;51.496;7.334;2022-10-16T08:32:38;33.40;55.00
10812;DHT22;5458;51.496;7.334;2022-10-16T08:35:04;33.20;56.90
10812;DHT22;5458;51.496;7.334;2022-10-16T08:37:30;34.10;55.60
10812;DHT22;5458;51.496;7.334;2022-10-16T08:39:56;35.30;54.20
10812;DHT22;5458;51.496;7.334;2022-10-16T08:42:39;36.10;51.80
10812;DHT22;5458;51.496;7.334;2022-10-16T08:50:26;35.40;50.50
10812;DHT22;5458;51.496;7.334;2022-10-16T08:52:53;34.70;50.20
10812;DHT22;5458;51.496;7.334;2022-10-16T08:55:42;34.60;49.90
10812;DHT22;5458;51.496;7.334;2022-10-16T08:58:18;34.70;49.60
10812;DHT22;5458;51.496;7.334;2022-10-16T09:00:47;34.70;49.60
10812;DHT22;5458;51.496;7.334;2022-10-16T09:03:35;34.00;49.90
10812;DHT22;5458;51.496;7.334;2022-10-16T09:16:55;35.20;46.50
10812;DHT22;5458;51.496;7.334;2022-10-16T09:19:36;34.40;47.70
10812;DHT22;5458;51.496;7.334;2022-10-16T09:22:14;33.60;49.20
10812;DHT22;5458;51.496;7.334;2022-10-16T09:24:40;31.30;51.40
10812;DHT22;5458;51.496;7.334;2022-10-16T09:27:10;29.50;54.80
10812;DHT22;5458;51.496;7.334;2022-10-16T09:29:36;27.30;57.40
10812;DHT22;5458;51.496;7.334;2022-10-16T09:32:17;25.80;62.10
10812;DHT22;5458;51.496;7.334;2022-10-16T09:34:52;24.60;68.80
10812;DHT22;5458;51.496;7.334;2022-10-16T09:37:21;24.00;72.00
10812;DHT22;5458;51.496;7.334;2022-10-16T09:39:54;23.60;73.90
10812;DHT22;5458;51.496;7.334;2022-10-16T09:42:33;23.20;76.30
10812;DHT22;5458;51.496;7.334;2022-10-16T09:44:59;22.80;79.20
10812;DHT22;5458;51.496;7.334;2022-10-16T09:47:29;22.60;83.00
10812;DHT22;5458;51.496;7.334;2022-10-16T09:50:05;22.40;82.10
10812;DHT22;5458;51.496;7.334;2022-10-16T09:52:32;22.50;85.10
10812;DHT22;5458;51.496;7.334;2022-10-16T09:55:00;22.50;85.50
10812;DHT22;5458;51.496;7.334;2022-10-16T09:57:27;22.50;86.10
10812;DHT22;5458;51.496;7.334;2022-10-16T09:59:55;22.50;85.20
10812;DHT22;5458;51.496;7.334;2022-10-16T10:02:31;21.80;85.80
10812;DHT22;5458;51.496;7.334;2022-10-16T10:04:59;21.50;88.80
10812;DHT22;5458;51.496;7.334;2022-10-16T10:07:31;21.60;90.90
10812;DHT22;5458;51.496;7.334;2022-10-16T10:10:02;21.70;91.00
10812;DHT22;5458;51.496;7.334;2022-10-16T10:12:30;21.80;90.40
10812;DHT22;5458;51.496;7.334;2022-10-16T10:15:10;21.70;89.90
10812;DHT22;5458;51.496;7.334;2022-10-16T10:17:46;21.70;90.60
10812;DHT22;5458;51.496;7.334;2022-10-16T10:20:28;21.90;91.30
10812;DHT22;5458;51.496;7.334;2022-10-16T10:22:54;21.90;90.50
10812;DHT22;5458;51.496;7.334;2022-10-16T10:25:44;21.80;90.40
10812;DHT22;5458;51.496;7.334;2022-10-16T10:31:14;21.60;91.40
10812;DHT22;5458;51.496;7.334;2022-10-16T10:34:32;21.60;91.80
10812;DHT22;5458;51.496;7.334;2022-10-16T10:36:57;21.60;91.60
10812;DHT22;5458;51.496;7.334;2022-10-16T10:39:38;21.50;92.00
10812;DHT22;5458;51.496;7.334;2022-10-16T10:42:34;21.60;91.60
10812;DHT22;5458;51.496;7.334;2022-10-16T10:45:27;21.50;91.90
10812;DHT22;5458;51.496;7.334;2022-10-16T10:48:28;21.50;92.00
10812;DHT22;5458;51.496;7.334;2022-10-16T10:51:12;21.40;91.80
10812;DHT22;5458;51.496;7.334;2022-10-16T10:59:22;21.50;91.90
10812;DHT22;5458;51.496;7.334;2022-10-16T11:01:59;21.60;91.90
10812;DHT22;5458;51.496;7.334;2022-10-16T11:05:02;21.70;91.30
10812;DHT22;5458;51.496;7.334;2022-10-16T11:07:38;21.70;92.00
10812;DHT22;5458;51.496;7.334;2022-10-16T11:10:16;21.50;91.60
10812;DHT22;5458;51.496;7.334;2022-10-16T11:12:52;21.30;91.30
10812;DHT22;5458;51.496;7.334;2022-10-16T11:15:32;21.10;91.70
10812;DHT22;5458;51.496;7.334;2022-10-16T11:21:04;21.10;92.70
10812;DHT22;5458;51.496;7.334;2022-10-16T11:23:29;21.30;93.00
10812;DHT22;5458;51.496;7.334;2022-10-16T11:26:01;21.30;92.70
10812;DHT22;5458;51.496;7.334;2022-10-16T11:28:50;21.40;93.10
10812;DHT22;5458;51.496;7.334;2022-10-16T11:34:16;21.20;92.10
10812;DHT22;5458;51.496;7.334;2022-10-16T11:39:25;21.20;92.40
10812;DHT22;5458;51.496;7.334;2022-10-16T11:49:50;21.10;92.40
10812;DHT22;5458;51.496;7.334;2022-10-16T11:52:39;21.10;92.20
10812;DHT22;5458;51.496;7.334;2022-10-16T11:58:25;21.00;93.10
10812;DHT22;5458;51.496;7.334;2022-10-16T12:00:58;21.00;92.50
10812;DHT22;5458;51.496;7.334;2022-10-16T12:03:39;21.00;92.10
10812;DHT22;5458;51.496;7.334;2022-10-16T12:08:35;20.90;91.80
10812;DHT22;5458;51.496;7.334;2022-10-16T12:11:23;20.70;92.00
10812;DHT22;5458;51.496;7.334;2022-10-16T12:13:50;20.60;92.80
10812;DHT22;5458;51.496;7.334;2022-10-16T12:18:43;20.70;92.90
10812;DHT22;5458;51.496;7.334;2022-10-16T12:21:10;20.70;92.70
10812;DHT22;5458;51.496;7.334;2022-10-16T12:23:59;20.60;92.70
10812;DHT22;5458;51.496;7.334;2022-10-16T12:26:30;20.50;92.70
10812;DHT22;5458;51.496;7.334;2022-10-16T12:29:54;20.50;93.00
10812;DHT22;5458;51.496;7.334;2022-10-16T12:31:54;20.50;93.30
10812;DHT22;5458;51.496;7.334;2022-10-16T12:34:39;20.50;93.50
10812;DHT22;5458;51.496;7.334;2022-10-16T12:37:23;20.60;93.60
10812;DHT22;5458;51.496;7.334;2022-10-16T12:39:51;20.80;93.60
10812;DHT22;5458;51.496;7.334;2022-10-16T12:44:52;20.90;93.00
10812;DHT22;5458;51.496;7.334;2022-10-16T12:47:36;20.80;92.90
10812;DHT22;5458;51.496;7.334;2022-10-16T12:50:03;20.80;92.80
10812;DHT22;5458;51.496;7.334;2022-10-16T12:52:37;20.70;93.10
10812;DHT22;5458;51.496;7.334;2022-10-16T12:55:05;20.60;92.90
10812;DHT22;5458;51.496;7.334;2022-10-16T13:09:02;20.50;94.00
10812;DHT22;5458;51.496;7.334;2022-10-16T13:12:08;20.50;93.50
10812;DHT22;5458;51.496;7.334;2022-10-16T13:15:16;20.40;93.60
10812;DHT22;5458;51.496;7.334;2022-10-16T13:26:31;20.90;92.90
10812;DHT22;5458;51.496;7.334;2022-10-16T13:29:01;21.00;92.30
10812;DHT22;5458;51.496;7.334;2022-10-16T13:31:28;20.90;92.40
10812;DHT22;5458;51.496;7.334;2022-10-16T13:33:57;20.80;92.80
10812;DHT22;5458;51.496;7.334;2022-10-16T13:36:57;20.80;93.00
10812;DHT22;5458;51.496;7.334;2022-10-16T13:39:25;20.80;93.00
10812;DHT22;5458;51.496;7.334;2022-10-16T13:42:06;20.70;93.00
10812;DHT22;5458;51.496;7.334;2022-10-16T13:44:47;20.60;92.80
10812;DHT22;5458;51.496;7.334;2022-10-16T13:47:28;20.40;93.10
10812;DHT22;5458;51.496;7.334;2022-10-16T13:52:26;20.30;93.30
10812;DHT22;5458;51.496;7.334;2022-10-16T13:54:51;20.20;93.50
10812;DHT22;5458;51.496;7.334;2022-10-16T13:57:17;20.30;93.50
10812;DHT22;5458;51.496;7.334;2022-10-16T13:59:43;20.40;93.90
10812;DHT22;5458;51.496;7.334;2022-10-16T14:02:27;20.40;93.80
10812;DHT22;5458;51.496;7.334;2022-10-16T14:04:54;20.50;93.70
10812;DHT22;5458;51.496;7.334;2022-10-16T14:07:33;20.40;93.20
10812;DHT22;5458;51.496;7.334;2022-10-16T14:10:03;20.40;93.00
10812;DHT22;5458;51.496;7.334;2022-10-16T14:12:29;20.40;93.50
10812;DHT22;5458;51.496;7.334;2022-10-16T14:14:57;20.30;93.80
10812;DHT22;5458;51.496;7.334;2022-10-16T14:17:27;20.30;93.70
10812;DHT22;5458;51.496;7.334;2022-10-16T14:19:56;20.30;93.60
10812;DHT22;5458;51.496;7.334;2022-10-16T14:24:56;20.30;93.00
10812;DHT22;5458;51.496;7.334;2022-10-16T14:27:34;20.30;93.40
10812;DHT22;5458;51.496;7.334;2022-10-16T14:30:15;20.30;93.70
10812;DHT22;5458;51.496;7.334;2022-10-16T14:32:42;20.40;93.50
10812;DHT22;5458;51.496;7.334;2022-10-16T14:35:26;20.30;93.10
10812;DHT22;5458;51.496;7.334;2022-10-16T14:37:54;20.20;93.10
10812;DHT22;5458;51.496;7.334;2022-10-16T14:40:24;20.20;93.50
10812;DHT22;5458;51.496;7.334;2022-10-16T14:42:50;20.10;93.70
10812;DHT22;5458;51.496;7.334;2022-10-16T14:45:21;20.00;93.80
10812;DHT22;5458;51.496;7.334;2022-10-16T14:47:54;19.90;93.70
10812;DHT22;5458;51.496;7.334;2022-10-16T14:50:20;19.90;93.90
10812;DHT22;5458;51.496;7.334;2022-10-16T14:52:46;19.90;94.20
10812;DHT22;5458;51.496;7.334;2022-10-16T14:55:12;19.90;94.50
10812;DHT22;5458;51.496;7.334;2022-10-16T14:57:38;19.80;94.60
10812;DHT22;5458;51.496;7.334;2022-10-16T15:00:22;19.90;94.60
10812;DHT22;5458;51.496;7.334;2022-10-16T15:02:49;20.00;95.00
10812;DHT22;5458;51.496;7.334;2022-10-16T15:05:25;20.00;95.30
10812;DHT22;5458;51.496;7.334;2022-10-16T15:07:53;20.10;95.60
10812;DHT22;5458;51.496;7.334;2022-10-16T15:10:21;20.00;95.90
10812;DHT22;5458;51.496;7.334;2022-10-16T15:12:47;20.00;96.10
10812;DHT22;5458;51.496;7.334;2022-10-16T15:17:54;19.90;96.30
10812;DHT22;5458;51.496;7.334;2022-10-16T15:20:25;19.90;96.60
10812;DHT22;5458;51.496;7.334;2022-10-16T15:22:51;19.90;97.00
10812;DHT22;5458;51.496;7.334;2022-10-16T15:25:39;19.70;97.40
10812;DHT22;5458;51.496;7.334;2022-10-16T15:28:08;19.70;97.90
10812;DHT22;5458;51.496;7.334;2022-10-16T15:30:34;19.60;98.40
10812;DHT22;5458;51.496;7.334;2022-10-16T15:33:00;19.50;98.60
10812;DHT22;5458;51.496;7.334;2022-10-16T15:35:25;19.50;98.90
10812;DHT22;5458;51.496;7.334;2022-10-16T15:37:51;19.40;99.10
10812;DHT22;5458;51.496;7.334;2022-10-16T15:40:19;19.40;99.30
10812;DHT22;5458;51.496;7.334;2022-10-16T15:42:45;19.30;99.50
10812;DHT22;5458;51.496;7.334;2022-10-16T15:45:11;19.30;99.50
10812;DHT22;5458;51.496;7.334;2022-10-16T15:47:36;19.30;99.70
10812;DHT22;5458;51.496;7.334;2022-10-16T15:50:03;19.20;99.90
10812;DHT22;5458;51.496;7.334;2022-10-16T15:52:28;19.20;99.90
10812;DHT22;5458;51.496;7.334;2022-10-16T15:54:54;19.20;99.90
10812;DHT22;5458;51.496;7.334;2022-10-16T15:57:20;19.20;99.90
10812;DHT22;5458;51.496;7.334;2022-10-16T15:59:46;19.20;99.90
10812;DHT22;5458;51.496;7.334;2022-10-16T16:02:11;19.20;99.90
10812;DHT22;5458;51.496;7.334;2022-10-16T16:04:37;19.10;99.90
10812;DHT22;5458;51.496;7.334;2022-10-16T16:07:02;19.00;99.90
10812;DHT22;5458;51.496;7.334;2022-10-16T16:09:31;19.00;99.90
10812;DHT22;5458;51.496;7.334;2022-10-16T16:11:56;18.90;99.90
10812;DHT22;5458;51.496;7.334;2022-10-16T16:14:25;18.90;99.90
10812;DHT22;5458;51.496;7.334;2022-10-16T16:16:53;18.90;99.90
10812;DHT22;5458;51.496;7.334;2022-10-16T16:19:19;18.80;99.90
10812;DHT22;5458;51.496;7.334;2022-10-16T16:21:46;18.80;99.90
10812;DHT22;5458;51.496;7.334;2022-10-16T16:24:12;18.80;99.90
10812;DHT22;5458;51.496;7.334;2022-10-16T16:26:38;18.80;99.90
10812;DHT22;5458;51.496;7.334;2022-10-16T16:29:05;18.70;99.90
10812;DHT22;5458;51.496;7.334;2022-10-16T16:31:32;18.70;99.90
10812;DHT22;5458;51.496;7.334;2022-10-16T16:33:58;18.70;99.90
10812;DHT22;5458;51.496;7.334;2022-10-16T16:36:24;18.70;99.90
10812;DHT22;5458;51.496;7.334;2022-10-16T16:38:51;18.60;99.90
10812;DHT22;5458;51.496;7.334;2022-10-16T16:41:22;18.60;99.90
10812;DHT22;5458;51.496;7.334;2022-10-16T16:43:48;18.60;99.90
10812;DHT22;5458;51.496;7.334;2022-10-16T16:46:14;18.50;99.90
10812;DHT22;5458;51.496;7.334;2022-10-16T16:48:40;18.50;99.90
10812;DHT22;5458;51.496;7.334;2022-10-16T16:51:15;18.50;99.90
10812;DHT22;5458;51.496;7.334;2022-10-16T16:53:44;18.40;99.90
10812;DHT22;5458;51.496;7.334;2022-10-16T16:56:10;18.40;99.90
10812;DHT22;5458;51.496;7.334;2022-10-16T16:58:36;18.40;99.90
10812;DHT22;5458;51.496;7.334;2022-10-16T17:01:02;18.40;99.90
10812;DHT22;5458;51.496;7.334;2022-10-16T17:03:33;18.40;99.90
10812;DHT22;5458;51.496;7.334;2022-10-16T17:06:04;18.30;99.90
10812;DHT22;5458;51.496;7.334;2022-10-16T17:08:31;18.30;99.90
10812;DHT22;5458;51.496;7.334;2022-10-16T17:10:57;18.30;99.90
10812;DHT22;5458;51.496;7.334;2022-10-16T17:13:24;18.30;99.90
10812;DHT22;5458;51.496;7.334;2022-10-16T17:15:51;18.30;99.90
10812;DHT22;5458;51.496;7.334;2022-10-16T17:18:17;18.20;99.90
10812;DHT22;5458;51.496;7.334;2022-10-16T17:20:43;18.20;99.90
10812;DHT22;5458;51.496;7.334;2022-10-16T17:23:10;18.20;99.90
10812;DHT22;5458;51.496;7.334;2022-10-16T17:25:37;18.20;99.90
10812;DHT22;5458;51.496;7.334;2022-10-16T17:28:03;18.10;99.90
10812;DHT22;5458;51.496;7.334;2022-10-16T17:30:29;18.10;99.90
10812;DHT22;5458;51.496;7.334;2022-10-16T17:32:55;18.10;99.90
10812;DHT22;5458;51.496;7.334;2022-10-16T17:35:21;18.10;99.90
10812;DHT22;5458;51.496;7.334;2022-10-16T17:37:46;18.10;99.90
10812;DHT22;5458;51.496;7.334;2022-10-16T17:40:12;18.00;99.90
10812;DHT22;5458;51.496;7.334;2022-10-16T17:42:38;18.00;99.90